sensor_id;sensor_type;location;lat;lon;timestamp;P1;durP1;ratioP1;P2;durP2;ratioP2
37771;SDS011;23610;59.380;24.642;2024-03-08T00:01:48;13.23;;;6.28;;
37771;SDS011;23610;59.380;24.642;2024-03-08T00:07:18;8.88;;;5.53;;
37771;SDS011;23610;59.380;24.642;2024-03-08T00:12:34;12.38;;;7.10;;
37771;SDS011;23610;59.380;24.642;2024-03-08T00:18:04;11.23;;;6.15;;
37771;SDS011;23610;59.380;24.642;2024-03-08T00:23:20;11.98;;;6.95;;
37771;SDS011;23610;59.380;24.642;2024-03-08T00:28:50;13.73;;;7.05;;
37771;SDS011;23610;59.380;24.642;2024-03-08T00:34:06;15.20;;;7.38;;
37771;SDS011;23610;59.380;24.642;2024-03-08T00:39:36;13.85;;;6.38;;
37771;SDS011;23610;59.380;24.642;2024-03-08T00:44:52;12.75;;;6.57;;
37771;SDS011;23610;59.380;24.642;2024-03-08T00:50:17;9.57;;;6.43;;
37771;SDS011;23610;59.380;24.642;2024-03-08T00:55:40;10.68;;;5.90;;
37771;SDS011;23610;59.380;24.642;2024-03-08T01:00:56;9.77;;;6.18;;
37771;SDS011;23610;59.380;24.642;2024-03-08T01:06:26;25.38;;;12.45;;
37771;SDS011;23610;59.380;24.642;2024-03-08T01:11:44;13.98;;;8.50;;
37771;SDS011;23610;59.380;24.642;2024-03-08T01:17:14;6.72;;;4.20;;
37771;SDS011;23610;59.380;24.642;2024-03-08T01:22:30;7.70;;;4.72;;
37771;SDS011;23610;59.380;24.642;2024-03-08T01:28:00;10.90;;;4.95;;
37771;SDS011;23610;59.380;24.642;2024-03-08T01:33:17;17.92;;;5.85;;
37771;SDS011;23610;59.380;24.642;2024-03-08T01:38:47;12.13;;;6.07;;
37771;SDS011;23610;59.380;24.642;2024-03-08T01:44:03;7.70;;;4.70;;
37771;SDS011;23610;59.380;24.642;2024-03-08T01:49:33;6.65;;;4.63;;
37771;SDS011;23610;59.380;24.642;2024-03-08T01:54:49;7.97;;;4.32;;
37771;SDS011;23610;59.380;24.642;2024-03-08T02:00:19;5.18;;;3.33;;
37771;SDS011;23610;59.380;24.642;2024-03-08T02:05:36;5.55;;;3.05;;
37771;SDS011;23610;59.380;24.642;2024-03-08T02:11:09;7.50;;;4.78;;
37771;SDS011;23610;59.380;24.642;2024-03-08T02:16:25;7.97;;;4.07;;
37771;SDS011;23610;59.380;24.642;2024-03-08T02:21:55;10.07;;;6.30;;
37771;SDS011;23610;59.380;24.642;2024-03-08T02:27:11;11.77;;;5.28;;
37771;SDS011;23610;59.380;24.642;2024-03-08T02:32:41;8.13;;;4.65;;
37771;SDS011;23610;59.380;24.642;2024-03-08T02:37:57;11.23;;;5.05;;
37771;SDS011;23610;59.380;24.642;2024-03-08T02:43:27;21.38;;;6.88;;
37771;SDS011;23610;59.380;24.642;2024-03-08T02:48:43;9.70;;;5.38;;
37771;SDS011;23610;59.380;24.642;2024-03-08T02:54:13;8.70;;;4.72;;
37771;SDS011;23610;59.380;24.642;2024-03-08T02:59:29;6.65;;;4.10;;
37771;SDS011;23610;59.380;24.642;2024-03-08T03:05:02;5.05;;;3.55;;
37771;SDS011;23610;59.380;24.642;2024-03-08T03:10:22;5.75;;;3.60;;
37771;SDS011;23610;59.380;24.642;2024-03-08T03:15:53;6.07;;;3.83;;
37771;SDS011;23610;59.380;24.642;2024-03-08T03:21:09;5.43;;;3.88;;
37771;SDS011;23610;59.380;24.642;2024-03-08T03:26:39;4.90;;;3.33;;
37771;SDS011;23610;59.380;24.642;2024-03-08T03:31:55;5.50;;;3.40;;
37771;SDS011;23610;59.380;24.642;2024-03-08T03:37:26;8.10;;;4.72;;
37771;SDS011;23610;59.380;24.642;2024-03-08T03:42:42;6.95;;;4.13;;
37771;SDS011;23610;59.380;24.642;2024-03-08T03:48:12;6.65;;;3.97;;
37771;SDS011;23610;59.380;24.642;2024-03-08T03:53:35;8.43;;;4.97;;
37771;SDS011;23610;59.380;24.642;2024-03-08T03:59:05;8.48;;;4.75;;
37771;SDS011;23610;59.380;24.642;2024-03-08T04:04:21;8.68;;;5.30;;
37771;SDS011;23610;59.380;24.642;2024-03-08T04:09:51;7.13;;;5.03;;
37771;SDS011;23610;59.380;24.642;2024-03-08T04:15:07;12.57;;;5.10;;
37771;SDS011;23610;59.380;24.642;2024-03-08T04:20:37;10.02;;;5.72;;
37771;SDS011;23610;59.380;24.642;2024-03-08T04:25:54;10.07;;;5.65;;
37771;SDS011;23610;59.380;24.642;2024-03-08T04:31:24;9.10;;;5.35;;
37771;SDS011;23610;59.380;24.642;2024-03-08T04:36:41;10.70;;;5.38;;
37771;SDS011;23610;59.380;24.642;2024-03-08T04:42:11;12.60;;;5.40;;
37771;SDS011;23610;59.380;24.642;2024-03-08T04:47:27;13.43;;;6.85;;
37771;SDS011;23610;59.380;24.642;2024-03-08T04:52:58;11.75;;;6.68;;
37771;SDS011;23610;59.380;24.642;2024-03-08T04:58:14;11.90;;;6.18;;
37771;SDS011;23610;59.380;24.642;2024-03-08T05:03:44;13.38;;;6.70;;
37771;SDS011;23610;59.380;24.642;2024-03-08T05:09:00;12.00;;;6.55;;
37771;SDS011;23610;59.380;24.642;2024-03-08T05:14:37;15.90;;;7.28;;
37771;SDS011;23610;59.380;24.642;2024-03-08T05:19:54;15.20;;;7.68;;
37771;SDS011;23610;59.380;24.642;2024-03-08T05:25:24;34.40;;;19.33;;
37771;SDS011;23610;59.380;24.642;2024-03-08T05:30:55;17.65;;;10.38;;
37771;SDS011;23610;59.380;24.642;2024-03-08T05:36:29;16.20;;;7.50;;
37771;SDS011;23610;59.380;24.642;2024-03-08T05:41:47;26.83;;;8.60;;
37771;SDS011;23610;59.380;24.642;2024-03-08T05:47:19;20.60;;;8.48;;
37771;SDS011;23610;59.380;24.642;2024-03-08T05:52:38;36.53;;;18.00;;
37771;SDS011;23610;59.380;24.642;2024-03-08T05:58:08;21.48;;;9.60;;
37771;SDS011;23610;59.380;24.642;2024-03-08T06:03:26;22.05;;;9.23;;
37771;SDS011;23610;59.380;24.642;2024-03-08T06:09:00;33.08;;;16.65;;
37771;SDS011;23610;59.380;24.642;2024-03-08T06:14:24;26.55;;;13.48;;
37771;SDS011;23610;59.380;24.642;2024-03-08T06:19:53;26.63;;;12.95;;
37771;SDS011;23610;59.380;24.642;2024-03-08T06:25:13;20.95;;;11.07;;
37771;SDS011;23610;59.380;24.642;2024-03-08T06:30:42;28.15;;;12.57;;
37771;SDS011;23610;59.380;24.642;2024-03-08T06:35:59;29.60;;;13.80;;
37771;SDS011;23610;59.380;24.642;2024-03-08T06:41:28;20.58;;;9.18;;
37771;SDS011;23610;59.380;24.642;2024-03-08T06:46:45;15.60;;;6.38;;
37771;SDS011;23610;59.380;24.642;2024-03-08T06:52:14;21.27;;;16.42;;
37771;SDS011;23610;59.380;24.642;2024-03-08T06:57:44;21.20;;;15.40;;
37771;SDS011;23610;59.380;24.642;2024-03-08T07:03:01;12.32;;;6.40;;
37771;SDS011;23610;59.380;24.642;2024-03-08T07:08:33;17.92;;;6.53;;
37771;SDS011;23610;59.380;24.642;2024-03-08T07:13:50;17.10;;;7.97;;
37771;SDS011;23610;59.380;24.642;2024-03-08T07:19:19;15.50;;;6.72;;
37771;SDS011;23610;59.380;24.642;2024-03-08T07:24:36;12.15;;;5.90;;
37771;SDS011;23610;59.380;24.642;2024-03-08T07:30:31;14.93;;;6.05;;
37771;SDS011;23610;59.380;24.642;2024-03-08T07:36:00;13.75;;;6.60;;
37771;SDS011;23610;59.380;24.642;2024-03-08T07:41:29;13.88;;;5.35;;
37771;SDS011;23610;59.380;24.642;2024-03-08T07:46:46;9.77;;;4.97;;
37771;SDS011;23610;59.380;24.642;2024-03-08T07:52:15;11.52;;;6.07;;
37771;SDS011;23610;59.380;24.642;2024-03-08T07:57:33;12.65;;;6.38;;
37771;SDS011;23610;59.380;24.642;2024-03-08T08:03:04;10.50;;;5.72;;
37771;SDS011;23610;59.380;24.642;2024-03-08T08:08:20;13.00;;;7.13;;
37771;SDS011;23610;59.380;24.642;2024-03-08T08:13:49;14.45;;;6.63;;
37771;SDS011;23610;59.380;24.642;2024-03-08T08:19:06;9.45;;;5.82;;
37771;SDS011;23610;59.380;24.642;2024-03-08T08:24:35;10.82;;;5.82;;
37771;SDS011;23610;59.380;24.642;2024-03-08T08:29:52;10.15;;;6.28;;
37771;SDS011;23610;59.380;24.642;2024-03-08T08:35:21;8.93;;;5.82;;
37771;SDS011;23610;59.380;24.642;2024-03-08T08:40:39;12.13;;;6.57;;
37771;SDS011;23610;59.380;24.642;2024-03-08T08:46:09;7.13;;;5.10;;
37771;SDS011;23610;59.380;24.642;2024-03-08T08:51:28;10.10;;;5.78;;
37771;SDS011;23610;59.380;24.642;2024-03-08T08:56:57;11.57;;;6.20;;
37771;SDS011;23610;59.380;24.642;2024-03-08T09:02:14;9.18;;;4.80;;
37771;SDS011;23610;59.380;24.642;2024-03-08T09:07:44;10.73;;;5.47;;
37771;SDS011;23610;59.380;24.642;2024-03-08T09:13:00;6.78;;;4.40;;
37771;SDS011;23610;59.380;24.642;2024-03-08T09:18:44;23.00;;;14.80;;
37771;SDS011;23610;59.380;24.642;2024-03-08T09:24:01;14.35;;;9.25;;
37771;SDS011;23610;59.380;24.642;2024-03-08T09:29:30;9.70;;;6.53;;
37771;SDS011;23610;59.380;24.642;2024-03-08T09:34:47;15.68;;;11.48;;
37771;SDS011;23610;59.380;24.642;2024-03-08T09:40:17;15.43;;;8.73;;
37771;SDS011;23610;59.380;24.642;2024-03-08T09:45:35;15.63;;;9.88;;
37771;SDS011;23610;59.380;24.642;2024-03-08T09:51:05;10.65;;;6.43;;
37771;SDS011;23610;59.380;24.642;2024-03-08T09:56:22;8.98;;;4.93;;
37771;SDS011;23610;59.380;24.642;2024-03-08T10:01:51;9.27;;;7.00;;
37771;SDS011;23610;59.380;24.642;2024-03-08T10:07:10;7.07;;;3.72;;
37771;SDS011;23610;59.380;24.642;2024-03-08T10:12:40;8.02;;;3.83;;
37771;SDS011;23610;59.380;24.642;2024-03-08T10:17:56;7.57;;;4.25;;
37771;SDS011;23610;59.380;24.642;2024-03-08T10:23:26;7.82;;;5.55;;
37771;SDS011;23610;59.380;24.642;2024-03-08T10:28:44;7.68;;;5.82;;
37771;SDS011;23610;59.380;24.642;2024-03-08T10:34:14;6.10;;;3.13;;
37771;SDS011;23610;59.380;24.642;2024-03-08T10:39:35;8.07;;;5.95;;
37771;SDS011;23610;59.380;24.642;2024-03-08T10:45:05;8.98;;;6.05;;
37771;SDS011;23610;59.380;24.642;2024-03-08T10:50:36;6.10;;;4.00;;
37771;SDS011;23610;59.380;24.642;2024-03-08T10:56:11;6.20;;;3.78;;
37771;SDS011;23610;59.380;24.642;2024-03-08T11:01:28;5.47;;;2.90;;
37771;SDS011;23610;59.380;24.642;2024-03-08T11:07:02;4.07;;;3.35;;
37771;SDS011;23610;59.380;24.642;2024-03-08T11:17:57;6.70;;;3.80;;
37771;SDS011;23610;59.380;24.642;2024-03-08T11:23:16;7.97;;;4.25;;
37771;SDS011;23610;59.380;24.642;2024-03-08T11:28:52;10.13;;;4.05;;
37771;SDS011;23610;59.380;24.642;2024-03-08T11:34:15;5.50;;;3.95;;
37771;SDS011;23610;59.380;24.642;2024-03-08T11:39:38;6.15;;;3.72;;
37771;SDS011;23610;59.380;24.642;2024-03-08T11:45:08;7.50;;;3.80;;
37771;SDS011;23610;59.380;24.642;2024-03-08T11:50:25;7.40;;;3.53;;
37771;SDS011;23610;59.380;24.642;2024-03-08T11:56:05;7.78;;;4.03;;
37771;SDS011;23610;59.380;24.642;2024-03-08T12:01:25;6.30;;;2.90;;
37771;SDS011;23610;59.380;24.642;2024-03-08T12:06:55;4.68;;;3.08;;
37771;SDS011;23610;59.380;24.642;2024-03-08T12:12:16;7.00;;;3.65;;
37771;SDS011;23610;59.380;24.642;2024-03-08T12:17:48;5.90;;;3.45;;
37771;SDS011;23610;59.380;24.642;2024-03-08T12:23:05;6.05;;;3.50;;
37771;SDS011;23610;59.380;24.642;2024-03-08T12:28:42;4.57;;;2.85;;
37771;SDS011;23610;59.380;24.642;2024-03-08T12:34:00;4.25;;;3.33;;
37771;SDS011;23610;59.380;24.642;2024-03-08T12:39:31;3.03;;;2.15;;
37771;SDS011;23610;59.380;24.642;2024-03-08T12:44:49;3.00;;;2.15;;
37771;SDS011;23610;59.380;24.642;2024-03-08T12:50:21;2.83;;;2.55;;
37771;SDS011;23610;59.380;24.642;2024-03-08T12:55:39;4.20;;;3.08;;
37771;SDS011;23610;59.380;24.642;2024-03-08T13:01:09;3.60;;;2.50;;
37771;SDS011;23610;59.380;24.642;2024-03-08T13:06:27;3.03;;;2.33;;
37771;SDS011;23610;59.380;24.642;2024-03-08T13:11:56;4.13;;;2.88;;
37771;SDS011;23610;59.380;24.642;2024-03-08T13:17:15;5.28;;;2.63;;
37771;SDS011;23610;59.380;24.642;2024-03-08T13:22:47;2.65;;;2.08;;
37771;SDS011;23610;59.380;24.642;2024-03-08T13:28:04;2.45;;;2.15;;
37771;SDS011;23610;59.380;24.642;2024-03-08T13:33:33;2.70;;;2.20;;
37771;SDS011;23610;59.380;24.642;2024-03-08T13:38:49;33.60;;;13.13;;
37771;SDS011;23610;59.380;24.642;2024-03-08T13:44:20;17.08;;;13.77;;
37771;SDS011;23610;59.380;24.642;2024-03-08T13:49:36;27.70;;;22.77;;
37771;SDS011;23610;59.380;24.642;2024-03-08T13:55:06;11.43;;;9.60;;
37771;SDS011;23610;59.380;24.642;2024-03-08T14:00:22;10.82;;;9.80;;
37771;SDS011;23610;59.380;24.642;2024-03-08T14:05:58;5.80;;;4.22;;
37771;SDS011;23610;59.380;24.642;2024-03-08T14:11:14;6.35;;;2.20;;
37771;SDS011;23610;59.380;24.642;2024-03-08T14:16:45;2.85;;;2.08;;
37771;SDS011;23610;59.380;24.642;2024-03-08T14:22:02;7.40;;;3.58;;
37771;SDS011;23610;59.380;24.642;2024-03-08T14:27:35;7.82;;;4.20;;
37771;SDS011;23610;59.380;24.642;2024-03-08T14:32:51;5.30;;;3.33;;
37771;SDS011;23610;59.380;24.642;2024-03-08T14:38:21;6.47;;;4.03;;
37771;SDS011;23610;59.380;24.642;2024-03-08T14:43:39;1.65;;;1.50;;
37771;SDS011;23610;59.380;24.642;2024-03-08T14:49:11;1.67;;;1.58;;
37771;SDS011;23610;59.380;24.642;2024-03-08T14:54:27;4.13;;;3.25;;
37771;SDS011;23610;59.380;24.642;2024-03-08T14:59:57;11.55;;;8.23;;
37771;SDS011;23610;59.380;24.642;2024-03-08T15:05:20;8.35;;;4.43;;
37771;SDS011;23610;59.380;24.642;2024-03-08T15:10:53;3.20;;;1.88;;
37771;SDS011;23610;59.380;24.642;2024-03-08T15:16:10;2.92;;;2.13;;
37771;SDS011;23610;59.380;24.642;2024-03-08T15:21:39;2.72;;;2.00;;
37771;SDS011;23610;59.380;24.642;2024-03-08T15:26:57;2.22;;;1.75;;
37771;SDS011;23610;59.380;24.642;2024-03-08T15:32:27;5.45;;;3.13;;
37771;SDS011;23610;59.380;24.642;2024-03-08T15:37:46;7.18;;;3.95;;
37771;SDS011;23610;59.380;24.642;2024-03-08T15:43:16;5.60;;;4.13;;
37771;SDS011;23610;59.380;24.642;2024-03-08T15:48:34;8.43;;;4.13;;
37771;SDS011;23610;59.380;24.642;2024-03-08T15:54:05;8.13;;;5.75;;
37771;SDS011;23610;59.380;24.642;2024-03-08T15:59:22;4.78;;;3.45;;
37771;SDS011;23610;59.380;24.642;2024-03-08T16:04:55;11.55;;;4.82;;
37771;SDS011;23610;59.380;24.642;2024-03-08T16:10:11;5.85;;;3.83;;
37771;SDS011;23610;59.380;24.642;2024-03-08T16:15:42;7.00;;;3.83;;
37771;SDS011;23610;59.380;24.642;2024-03-08T16:21:01;12.52;;;4.45;;
37771;SDS011;23610;59.380;24.642;2024-03-08T16:26:31;20.08;;;10.85;;
37771;SDS011;23610;59.380;24.642;2024-03-08T16:31:49;9.90;;;6.07;;
37771;SDS011;23610;59.380;24.642;2024-03-08T16:37:20;16.30;;;8.63;;
37771;SDS011;23610;59.380;24.642;2024-03-08T16:42:37;5.90;;;3.38;;
37771;SDS011;23610;59.380;24.642;2024-03-08T16:48:08;9.07;;;4.50;;
37771;SDS011;23610;59.380;24.642;2024-03-08T16:53:24;8.32;;;5.10;;
37771;SDS011;23610;59.380;24.642;2024-03-08T16:58:55;10.77;;;3.67;;
37771;SDS011;23610;59.380;24.642;2024-03-08T17:04:11;7.03;;;4.05;;
37771;SDS011;23610;59.380;24.642;2024-03-08T17:09:41;4.88;;;3.38;;
37771;SDS011;23610;59.380;24.642;2024-03-08T17:14:57;7.00;;;3.80;;
37771;SDS011;23610;59.380;24.642;2024-03-08T17:20:27;6.43;;;3.88;;
37771;SDS011;23610;59.380;24.642;2024-03-08T17:25:44;4.63;;;4.13;;
37771;SDS011;23610;59.380;24.642;2024-03-08T17:31:16;12.27;;;6.13;;
37771;SDS011;23610;59.380;24.642;2024-03-08T17:36:32;3.55;;;3.08;;
37771;SDS011;23610;59.380;24.642;2024-03-08T17:42:02;4.40;;;2.58;;
37771;SDS011;23610;59.380;24.642;2024-03-08T17:47:18;5.53;;;3.58;;
37771;SDS011;23610;59.380;24.642;2024-03-08T17:52:48;5.28;;;3.45;;
37771;SDS011;23610;59.380;24.642;2024-03-08T17:58:05;3.65;;;3.28;;
37771;SDS011;23610;59.380;24.642;2024-03-08T18:03:38;3.25;;;2.78;;
37771;SDS011;23610;59.380;24.642;2024-03-08T18:08:54;3.40;;;2.33;;
37771;SDS011;23610;59.380;24.642;2024-03-08T18:14:26;4.00;;;2.13;;
37771;SDS011;23610;59.380;24.642;2024-03-08T18:19:42;3.20;;;2.45;;
37771;SDS011;23610;59.380;24.642;2024-03-08T18:25:13;5.85;;;3.30;;
37771;SDS011;23610;59.380;24.642;2024-03-08T18:30:32;7.47;;;4.07;;
37771;SDS011;23610;59.380;24.642;2024-03-08T18:36:05;4.53;;;2.88;;
37771;SDS011;23610;59.380;24.642;2024-03-08T18:41:22;4.43;;;2.72;;
37771;SDS011;23610;59.380;24.642;2024-03-08T18:46:59;3.08;;;2.70;;
37771;SDS011;23610;59.380;24.642;2024-03-08T18:52:15;8.63;;;4.18;;
37771;SDS011;23610;59.380;24.642;2024-03-08T18:57:47;3.22;;;2.25;;
37771;SDS011;23610;59.380;24.642;2024-03-08T19:03:03;6.45;;;4.43;;
37771;SDS011;23610;59.380;24.642;2024-03-08T19:08:34;9.05;;;3.75;;
37771;SDS011;23610;59.380;24.642;2024-03-08T19:13:51;22.50;;;11.82;;
37771;SDS011;23610;59.380;24.642;2024-03-08T19:19:27;2.60;;;2.03;;
37771;SDS011;23610;59.380;24.642;2024-03-08T19:24:49;7.75;;;2.63;;
37771;SDS011;23610;59.380;24.642;2024-03-08T19:30:19;4.22;;;2.60;;
37771;SDS011;23610;59.380;24.642;2024-03-08T19:35:43;3.13;;;1.73;;
37771;SDS011;23610;59.380;24.642;2024-03-08T19:41:13;3.15;;;2.55;;
37771;SDS011;23610;59.380;24.642;2024-03-08T19:46:29;6.95;;;3.05;;
37771;SDS011;23610;59.380;24.642;2024-03-08T19:52:02;1.95;;;1.75;;
37771;SDS011;23610;59.380;24.642;2024-03-08T19:57:18;2.15;;;1.48;;
37771;SDS011;23610;59.380;24.642;2024-03-08T20:02:52;2.70;;;2.35;;
37771;SDS011;23610;59.380;24.642;2024-03-08T20:08:09;5.88;;;2.05;;
37771;SDS011;23610;59.380;24.642;2024-03-08T20:13:40;3.15;;;2.08;;
37771;SDS011;23610;59.380;24.642;2024-03-08T20:18:57;2.47;;;2.05;;
37771;SDS011;23610;59.380;24.642;2024-03-08T20:24:27;7.05;;;2.42;;
37771;SDS011;23610;59.380;24.642;2024-03-08T20:29:45;2.70;;;2.47;;
37771;SDS011;23610;59.380;24.642;2024-03-08T20:35:15;3.88;;;2.45;;
37771;SDS011;23610;59.380;24.642;2024-03-08T20:40:37;14.07;;;8.40;;
37771;SDS011;23610;59.380;24.642;2024-03-08T20:46:08;1.85;;;1.65;;
37771;SDS011;23610;59.380;24.642;2024-03-08T20:51:25;2.63;;;1.88;;
37771;SDS011;23610;59.380;24.642;2024-03-08T20:56:56;7.30;;;2.78;;
37771;SDS011;23610;59.380;24.642;2024-03-08T21:02:12;4.10;;;3.20;;
37771;SDS011;23610;59.380;24.642;2024-03-08T21:07:42;2.15;;;1.77;;
37771;SDS011;23610;59.380;24.642;2024-03-08T21:12:59;2.60;;;1.70;;
37771;SDS011;23610;59.380;24.642;2024-03-08T21:18:31;2.05;;;1.80;;
37771;SDS011;23610;59.380;24.642;2024-03-08T21:23:47;2.47;;;1.70;;
37771;SDS011;23610;59.380;24.642;2024-03-08T21:29:03;4.60;;;1.52;;
37771;SDS011;23610;59.380;24.642;2024-03-08T21:34:37;2.00;;;1.55;;
37771;SDS011;23610;59.380;24.642;2024-03-08T21:39:54;3.58;;;1.75;;
37771;SDS011;23610;59.380;24.642;2024-03-08T21:45:27;1.90;;;1.75;;
37771;SDS011;23610;59.380;24.642;2024-03-08T21:50:46;3.47;;;1.58;;
37771;SDS011;23610;59.380;24.642;2024-03-08T21:56:16;1.80;;;1.70;;
37771;SDS011;23610;59.380;24.642;2024-03-08T22:01:32;3.05;;;2.25;;
37771;SDS011;23610;59.380;24.642;2024-03-08T22:07:03;2.90;;;2.38;;
37771;SDS011;23610;59.380;24.642;2024-03-08T22:12:19;2.30;;;2.10;;
37771;SDS011;23610;59.380;24.642;2024-03-08T22:17:51;3.35;;;2.10;;
37771;SDS011;23610;59.380;24.642;2024-03-08T22:23:10;2.40;;;2.20;;
37771;SDS011;23610;59.380;24.642;2024-03-08T22:28:43;2.20;;;1.90;;
37771;SDS011;23610;59.380;24.642;2024-03-08T22:34:01;4.00;;;2.50;;
37771;SDS011;23610;59.380;24.642;2024-03-08T22:39:32;3.38;;;2.28;;
37771;SDS011;23610;59.380;24.642;2024-03-08T22:44:48;2.40;;;2.10;;
37771;SDS011;23610;59.380;24.642;2024-03-08T22:50:20;2.88;;;1.65;;
37771;SDS011;23610;59.380;24.642;2024-03-08T22:55:39;2.60;;;1.77;;
37771;SDS011;23610;59.380;24.642;2024-03-08T23:01:10;2.28;;;1.90;;
37771;SDS011;23610;59.380;24.642;2024-03-08T23:06:30;2.15;;;1.40;;
37771;SDS011;23610;59.380;24.642;2024-03-08T23:12:00;2.92;;;1.98;;
37771;SDS011;23610;59.380;24.642;2024-03-08T23:17:16;2.25;;;1.92;;
37771;SDS011;23610;59.380;24.642;2024-03-08T23:22:47;5.35;;;1.52;;
37771;SDS011;23610;59.380;24.642;2024-03-08T23:28:04;3.45;;;2.38;;
37771;SDS011;23610;59.380;24.642;2024-03-08T23:33:37;3.50;;;2.30;;
37771;SDS011;23610;59.380;24.642;2024-03-08T23:38:53;4.28;;;2.63;;
37771;SDS011;23610;59.380;24.642;2024-03-08T23:44:23;2.65;;;1.98;;
37771;SDS011;23610;59.380;24.642;2024-03-08T23:49:39;6.57;;;2.53;;
37771;SDS011;23610;59.380;24.642;2024-03-08T23:55:12;3.58;;;2.10;;
